createdAt,value
2022-11-29T00:01:11.362Z,101017.13
2022-11-29T00:03:38.412Z,101011.28
2022-11-29T00:06:10.193Z,101010.13
2022-11-29T00:08:37.169Z,100997.78
2022-11-29T00:11:11.810Z,100999.25
2022-11-29T00:13:39.107Z,101013.75
2022-11-29T00:16:10.509Z,101004.78
2022-11-29T00:18:37.181Z,100996.09
2022-11-29T00:21:08.164Z,100990.50
2022-11-29T00:23:35.988Z,100992.13
2022-11-29T00:26:04.560Z,100984.88
2022-11-29T00:28:31.143Z,100983.53
2022-11-29T00:30:57.768Z,100972.37
2022-11-29T00:33:24.405Z,100979.56
2022-11-29T00:35:50.960Z,100980.50
2022-11-29T00:38:17.671Z,100980.06
2022-11-29T00:40:44.275Z,100987.84
2022-11-29T00:43:10.842Z,100976.69
2022-11-29T00:45:37.413Z,100974.44
2022-11-29T00:48:04.213Z,100970.97
2022-11-29T00:50:30.771Z,100976.41
2022-11-29T00:52:57.422Z,100970.47
2022-11-29T00:55:23.986Z,100969.88
2022-11-29T00:57:50.527Z,100973.72
2022-11-29T01:00:17.651Z,100976.75
2022-11-29T01:02:44.230Z,100963.34
2022-11-29T01:05:10.836Z,100964.06
2022-11-29T01:07:37.420Z,100964.16
2022-11-29T01:10:04.933Z,100962.37
2022-11-29T01:12:31.610Z,100961.38
2022-11-29T01:14:58.958Z,100972.84
2022-11-29T01:17:25.523Z,100962.37
2022-11-29T01:19:52.134Z,100963.16
2022-11-29T01:22:18.761Z,100956.84
2022-11-29T01:24:45.620Z,100957.22
2022-11-29T01:27:12.505Z,100963.41
2022-11-29T01:29:39.226Z,100952.81
2022-11-29T01:32:05.814Z,100962.56
2022-11-29T01:34:32.399Z,100958.59
2022-11-29T01:36:58.995Z,100958.06
2022-11-29T01:39:25.604Z,100957.12
2022-11-29T01:41:52.171Z,100944.53
2022-11-29T01:44:18.702Z,100949.66
2022-11-29T01:46:48.158Z,100954.28
2022-11-29T01:49:19.516Z,100950.31
2022-11-29T01:51:49.884Z,100947.22
2022-11-29T01:54:17.694Z,100943.03
2022-11-29T01:56:47.881Z,100944.78
2022-11-29T01:59:19.186Z,100951.78
2022-11-29T02:01:45.956Z,100957.84
2022-11-29T02:04:12.820Z,100954.34
2022-11-29T02:06:41.303Z,100958.28
2022-11-29T02:09:19.959Z,100959.37
2022-11-29T02:12:20.041Z,100958.53
2022-11-29T02:15:08.522Z,100956.00
2022-11-29T02:17:51.282Z,100960.22
2022-11-29T02:20:51.887Z,100959.06
2022-11-29T02:23:44.659Z,100956.16
2022-11-29T02:26:48.809Z,100954.63
2022-11-29T02:29:34.108Z,100954.88
2022-11-29T02:32:19.728Z,100964.41
2022-11-29T02:35:07.853Z,100967.88
2022-11-29T02:38:08.713Z,100971.16
2022-11-29T02:40:35.222Z,100966.63
2022-11-29T02:43:35.846Z,100981.97
2022-11-29T02:46:17.852Z,100974.62
2022-11-29T02:49:10.684Z,100970.47
2022-11-29T02:51:49.650Z,100981.63
2022-11-29T02:54:46.889Z,100975.81
2022-11-29T02:57:19.891Z,100981.28
2022-11-29T02:59:46.375Z,100978.50
2022-11-29T03:02:20.093Z,100980.47
2022-11-29T03:05:15.622Z,100984.19
2022-11-29T03:07:54.230Z,100976.37
2022-11-29T03:10:32.927Z,100985.81
2022-11-29T03:13:03.817Z,100982.78
2022-11-29T03:15:41.695Z,100988.03
2022-11-29T03:18:14.875Z,100977.47
2022-11-29T03:21:08.536Z,100987.44
2022-11-29T03:23:39.895Z,100982.78
2022-11-29T03:26:35.603Z,100986.53
2022-11-29T03:29:45.427Z,100981.31
2022-11-29T03:32:22.781Z,100975.81
2022-11-29T03:34:56.952Z,100977.44
2022-11-29T03:37:47.649Z,100974.44
2022-11-29T03:40:19.938Z,100981.53
2022-11-29T03:43:18.162Z,100991.66
2022-11-29T03:46:29.786Z,100989.19
2022-11-29T03:49:09.784Z,100980.00
2022-11-29T03:51:36.254Z,100980.25
2022-11-29T03:54:09.627Z,100988.59
2022-11-29T03:56:39.685Z,100998.38
2022-11-29T03:59:37.024Z,100993.84
2022-11-29T04:02:41.193Z,101002.78
2022-11-29T04:05:20.218Z,100995.81
2022-11-29T04:08:02.227Z,100987.91
2022-11-29T04:10:37.640Z,101002.56
2022-11-29T04:13:35.486Z,101005.34
2022-11-29T04:16:03.071Z,101010.69
2022-11-29T04:19:07.488Z,101005.47
2022-11-29T04:22:06.756Z,101006.63
2022-11-29T04:24:50.798Z,101004.66
2022-11-29T04:27:37.022Z,101006.63
2022-11-29T04:30:16.237Z,101006.63
2022-11-29T04:32:58.082Z,101010.13
2022-11-29T04:36:05.050Z,101010.94
2022-11-29T04:38:53.583Z,101021.41
2022-11-29T04:41:42.009Z,101029.75
2022-11-29T04:44:39.648Z,101032.31
2022-11-29T04:47:18.416Z,101025.44
2022-11-29T04:49:54.123Z,101022.31
2022-11-29T04:52:45.249Z,101021.62
2022-11-29T04:55:39.805Z,101025.34
2022-11-29T04:58:20.984Z,101031.28
2022-11-29T05:01:01.195Z,101028.72
2022-11-29T05:03:55.441Z,101035.91
2022-11-29T05:06:58.767Z,101038.47
2022-11-29T05:09:34.844Z,101037.91
2022-11-29T05:12:13.760Z,101039.66
2022-11-29T05:14:50.277Z,101043.34
2022-11-29T05:17:48.033Z,101049.75
2022-11-29T05:20:23.854Z,101057.56
2022-11-29T05:23:21.128Z,101051.59
2022-11-29T05:25:52.907Z,101052.91
2022-11-29T05:28:37.812Z,101040.00
2022-11-29T05:31:11.577Z,101041.94
2022-11-29T05:33:55.202Z,101046.59
2022-11-29T05:37:02.875Z,101052.78
2022-11-29T05:39:49.538Z,101042.22
2022-11-29T05:42:42.582Z,101046.38
2022-11-29T05:45:25.407Z,101047.66
2022-11-29T05:48:13.696Z,101054.75
2022-11-29T05:51:03.147Z,101052.78
2022-11-29T05:54:14.423Z,101040.09
2022-11-29T05:56:59.416Z,101049.53
2022-11-29T05:59:30.551Z,101048.94
2022-11-29T06:02:24.403Z,101047.91
2022-11-29T06:05:24.431Z,101055.81
2022-11-29T06:07:54.033Z,101054.88
2022-11-29T06:10:28.797Z,101061.63
2022-11-29T06:13:29.526Z,101066.50
2022-11-29T06:16:08.945Z,101065.56
2022-11-29T06:19:17.241Z,101061.16
2022-11-29T06:22:11.541Z,101055.00
2022-11-29T06:24:50.749Z,101065.34
2022-11-29T06:27:29.697Z,101063.25
2022-11-29T06:30:10.397Z,101061.41
2022-11-29T06:32:48.974Z,101067.69
2022-11-29T06:35:51.141Z,101062.56
2022-11-29T06:38:27.591Z,101070.91
2022-11-29T06:41:01.399Z,101072.09
2022-11-29T06:43:29.547Z,101077.44
2022-11-29T06:46:28.889Z,101079.44
2022-11-29T06:49:09.982Z,101086.88
2022-11-29T06:51:51.559Z,101083.72
2022-11-29T06:54:56.550Z,101083.94
2022-11-29T06:57:34.293Z,101083.72
2022-11-29T07:00:22.297Z,101084.66
2022-11-29T07:03:25.761Z,101090.38
2022-11-29T07:05:52.545Z,101085.69
2022-11-29T07:08:22.822Z,101093.12
2022-11-29T07:10:53.219Z,101091.16
2022-11-29T07:13:20.671Z,101095.47
2022-11-29T07:15:59.522Z,101096.38
2022-11-29T07:18:28.828Z,101085.19
2022-11-29T07:21:52.759Z,101093.97
2022-11-29T07:24:19.251Z,101095.56
2022-11-29T07:26:59.608Z,101102.41
2022-11-29T07:29:39.859Z,101101.50
2022-11-29T07:32:34.479Z,101088.22
2022-11-29T07:35:30.457Z,101093.00
2022-11-29T07:38:21.566Z,101094.19
2022-11-29T07:41:08.146Z,101097.19
2022-11-29T07:43:34.706Z,101105.78
2022-11-29T07:46:01.824Z,101102.75
2022-11-29T07:48:28.492Z,101102.63
2022-11-29T07:50:56.514Z,101101.44
2022-11-29T07:53:24.210Z,101104.59
2022-11-29T07:55:50.962Z,101102.16
2022-11-29T07:58:17.966Z,101103.25
2022-11-29T08:00:45.305Z,101097.34
2022-11-29T08:03:12.498Z,101102.94
2022-11-29T08:05:39.748Z,101096.09
2022-11-29T08:08:06.916Z,101103.00
2022-11-29T08:10:34.209Z,101099.72
2022-11-29T08:13:00.784Z,101104.94
2022-11-29T08:15:27.504Z,101098.75
2022-11-29T08:17:54.133Z,101100.47
2022-11-29T08:20:20.920Z,101105.31
2022-11-29T08:22:59.206Z,101101.47
2022-11-29T08:25:27.968Z,101106.59
2022-11-29T08:27:55.343Z,101104.16
2022-11-29T08:30:22.708Z,101090.41
2022-11-29T08:32:51.737Z,101105.22
2022-11-29T08:35:20.622Z,101102.47
2022-11-29T08:37:47.253Z,101096.84
2022-11-29T08:40:14.403Z,101100.22
2022-11-29T08:42:40.967Z,101095.66
2022-11-29T08:45:09.492Z,101098.78
2022-11-29T08:47:37.339Z,101102.75
2022-11-29T08:50:16.921Z,101100.59
2022-11-29T08:53:07.631Z,101099.09
2022-11-29T08:55:35.259Z,101096.72
2022-11-29T08:58:06.302Z,101097.41
2022-11-29T09:00:34.232Z,101099.09
2022-11-29T09:03:24.583Z,101099.19
2022-11-29T09:05:52.174Z,101091.28
2022-11-29T09:08:19.761Z,101091.34
2022-11-29T09:10:46.375Z,101086.41
2022-11-29T09:13:13.336Z,101093.97
2022-11-29T09:15:41.907Z,101094.94
2022-11-29T09:18:08.445Z,101089.16
2022-11-29T09:20:35.371Z,101097.41
2022-11-29T09:23:02.054Z,101098.78
2022-11-29T09:25:28.799Z,101090.09
2022-11-29T09:27:58.486Z,101093.81
2022-11-29T09:30:25.091Z,101091.69
2022-11-29T09:32:51.638Z,101098.34
2022-11-29T09:35:18.294Z,101098.81
2022-11-29T09:37:44.867Z,101090.31
2022-11-29T09:40:21.311Z,101083.66
2022-11-29T09:43:06.340Z,101088.84
2022-11-29T09:45:38.520Z,101084.37
2022-11-29T09:48:11.239Z,101082.47
2022-11-29T09:50:46.910Z,101081.22
2022-11-29T09:53:19.566Z,101077.47
2022-11-29T09:56:18.156Z,101085.47
2022-11-29T09:59:01.251Z,101066.38
2022-11-29T10:01:49.484Z,101066.09
2022-11-29T10:04:20.562Z,101071.91
2022-11-29T10:07:03.722Z,101076.34
2022-11-29T10:09:39.007Z,101069.78
2022-11-29T10:12:23.763Z,101067.59
2022-11-29T10:15:13.791Z,101066.09
2022-11-29T10:17:58.022Z,101062.06
2022-11-29T10:20:27.244Z,101059.88
2022-11-29T10:23:22.123Z,101049.59
2022-11-29T10:25:54.215Z,101056.34
2022-11-29T10:28:26.086Z,101061.50
2022-11-29T10:31:14.789Z,101057.56
2022-11-29T10:33:42.132Z,101057.19
2022-11-29T10:36:39.842Z,101050.28
2022-11-29T10:39:14.784Z,101047.56
2022-11-29T10:41:41.720Z,101050.69
2022-11-29T10:44:13.814Z,101051.50
2022-11-29T10:46:41.200Z,101032.41
2022-11-29T10:49:15.035Z,101043.22
2022-11-29T10:51:41.688Z,101036.06
2022-11-29T10:54:25.037Z,101030.41
2022-11-29T10:56:52.252Z,101026.84
2022-11-29T10:59:25.253Z,101031.03
2022-11-29T11:01:52.350Z,101032.28
2022-11-29T11:04:44.520Z,101026.87
2022-11-29T11:07:24.844Z,101029.19
2022-11-29T11:09:55.911Z,101036.31
2022-11-29T11:12:26.262Z,101030.25
2022-11-29T11:15:15.038Z,101027.41
2022-11-29T11:17:56.018Z,101032.41
2022-11-29T11:20:24.174Z,101034.03
2022-11-29T11:23:28.964Z,101028.25
2022-11-29T11:26:08.179Z,101027.00
2022-11-29T11:29:00.159Z,101032.81
2022-11-29T11:31:34.265Z,101030.37
2022-11-29T11:34:23.850Z,101036.09
2022-11-29T11:36:50.461Z,101031.47
2022-11-29T11:39:22.936Z,101034.72
2022-11-29T11:42:09.626Z,101035.66
2022-11-29T11:44:58.423Z,101038.78
2022-11-29T11:47:28.605Z,101030.25
2022-11-29T11:50:04.196Z,101037.69
2022-11-29T11:52:41.258Z,101037.16
2022-11-29T11:55:22.422Z,101040.00
2022-11-29T11:58:13.800Z,101031.47
2022-11-29T12:01:03.320Z,101030.63
2022-11-29T12:03:49.328Z,101028.19
2022-11-29T12:06:51.186Z,101031.19
2022-11-29T12:09:35.812Z,101032.00
2022-11-29T12:12:23.705Z,101032.69
2022-11-29T12:15:02.694Z,101033.66
2022-11-29T12:17:37.937Z,101026.59
2022-11-29T12:20:07.436Z,101026.06
2022-11-29T12:23:12.666Z,101026.31
2022-11-29T12:25:51.464Z,101021.16
2022-11-29T12:28:20.818Z,101016.31
2022-11-29T12:30:56.359Z,101026.75
2022-11-29T12:33:47.099Z,101019.00
2022-11-29T12:36:27.343Z,101019.03
2022-11-29T12:39:08.170Z,101008.31
2022-11-29T12:41:40.735Z,101008.59
2022-11-29T12:44:28.544Z,101010.09
2022-11-29T12:47:35.368Z,101014.19
2022-11-29T12:50:23.212Z,101022.47
2022-11-29T12:53:27.567Z,101015.50
2022-11-29T12:56:03.774Z,101021.16
2022-11-29T12:58:58.424Z,101010.31
2022-11-29T13:01:46.442Z,101006.28
2022-11-29T13:04:31.625Z,101009.25
2022-11-29T13:07:19.900Z,101001.59
2022-11-29T13:10:03.431Z,101006.00
2022-11-29T13:12:33.153Z,101000.31
2022-11-29T13:15:06.882Z,101002.00
2022-11-29T13:17:54.908Z,101001.59
2022-11-29T13:20:33.426Z,101009.03
2022-11-29T13:23:03.051Z,101005.41
2022-11-29T13:25:50.726Z,101016.44
2022-11-29T13:28:25.348Z,101000.13
2022-11-29T13:30:54.326Z,101005.22
2022-11-29T13:33:33.142Z,101008.44
2022-11-29T13:36:18.561Z,101009.59
2022-11-29T13:39:06.706Z,101012.38
2022-11-29T13:41:54.363Z,101022.66
2022-11-29T13:44:27.339Z,101011.72
2022-11-29T13:47:12.471Z,101014.56
2022-11-29T13:50:06.171Z,101012.25
2022-11-29T13:52:47.611Z,101022.25
2022-11-29T13:55:23.398Z,101028.22
2022-11-29T13:58:16.745Z,101024.72
2022-11-29T14:00:44.020Z,101025.12
2022-11-29T14:03:28.809Z,101022.25
2022-11-29T14:06:23.083Z,101025.41
2022-11-29T14:09:17.855Z,101023.34
2022-11-29T14:11:42.277Z,101014.16
2022-11-29T14:14:10.462Z,101020.91
2022-11-29T14:17:04.900Z,101024.72
2022-11-29T14:19:36.433Z,101017.69
2022-11-29T14:22:02.975Z,101006.06
2022-11-29T14:24:32.701Z,101013.88
2022-11-29T14:27:19.436Z,101013.63
2022-11-29T14:29:53.974Z,101011.31
2022-11-29T14:32:20.610Z,101016.84
2022-11-29T14:34:57.432Z,101013.63
2022-11-29T14:37:40.261Z,101015.91
2022-11-29T14:40:42.011Z,101017.78
2022-11-29T14:43:34.697Z,101016.03
2022-11-29T14:46:16.567Z,101018.09
2022-11-29T14:48:58.510Z,101016.19
2022-11-29T14:51:28.732Z,101016.03
2022-11-29T14:54:20.006Z,101018.59
2022-11-29T14:56:47.458Z,101018.72
2022-11-29T14:59:35.836Z,101023.97
2022-11-29T15:02:07.145Z,101019.38
2022-11-29T15:04:36.584Z,101013.13
2022-11-29T15:07:04.526Z,101015.31
2022-11-29T15:09:33.971Z,101019.19
2022-11-29T15:12:13.127Z,101029.19
2022-11-29T15:14:39.606Z,101027.28
2022-11-29T15:17:36.428Z,101020.56
2022-11-29T15:20:24.761Z,101020.44
2022-11-29T15:22:55.320Z,101017.06
2022-11-29T15:25:26.503Z,101012.06
2022-11-29T15:27:58.069Z,101007.06
2022-11-29T15:30:35.278Z,101006.22
2022-11-29T15:33:05.302Z,101008.12
2022-11-29T15:35:35.035Z,101006.09
2022-11-29T15:38:02.553Z,101015.97
2022-11-29T15:40:40.804Z,101016.22
2022-11-29T15:43:16.546Z,101009.06
2022-11-29T15:45:55.532Z,101032.59
2022-11-29T15:48:32.539Z,101020.28
2022-11-29T15:51:04.887Z,101020.41
2022-11-29T15:54:11.652Z,101020.25
2022-11-29T15:56:48.674Z,101024.31
2022-11-29T15:59:32.313Z,101030.50
2022-11-29T16:02:05.526Z,101028.31
2022-11-29T16:04:32.266Z,101024.81
2022-11-29T16:06:58.894Z,101030.47
2022-11-29T16:09:35.299Z,101028.31
2022-11-29T16:12:02.944Z,101023.31
2022-11-29T16:14:29.521Z,101027.78
2022-11-29T16:17:00.519Z,101018.19
2022-11-29T16:19:37.972Z,101026.16
2022-11-29T16:22:07.502Z,101029.84
2022-11-29T16:24:35.016Z,101027.41
2022-11-29T16:27:02.231Z,101033.06
2022-11-29T16:29:38.256Z,101029.31
2022-11-29T16:32:29.821Z,101031.75
2022-11-29T16:35:04.116Z,101043.78
2022-11-29T16:37:40.746Z,101036.47
2022-11-29T16:40:20.059Z,101045.12
2022-11-29T16:43:03.121Z,101044.88
2022-11-29T16:45:38.701Z,101056.25
2022-11-29T16:48:23.572Z,101058.53
2022-11-29T16:51:14.765Z,101064.22
2022-11-29T16:53:43.003Z,101056.28
2022-11-29T16:56:12.107Z,101050.97
2022-11-29T16:58:43.225Z,101059.09
2022-11-29T17:01:29.332Z,101072.66
2022-11-29T17:03:58.476Z,101075.75
2022-11-29T17:06:25.938Z,101068.19
2022-11-29T17:08:55.723Z,101072.25
2022-11-29T17:11:22.664Z,101083.84
2022-11-29T17:13:52.989Z,101077.06
2022-11-29T17:16:24.239Z,101082.28
2022-11-29T17:18:52.838Z,101069.75
2022-11-29T17:21:22.702Z,101067.22
2022-11-29T17:23:49.596Z,101061.78
2022-11-29T17:26:16.927Z,101069.34
2022-11-29T17:28:44.895Z,101064.19
2022-11-29T17:31:16.486Z,101063.97
2022-11-29T17:33:43.510Z,101070.81
2022-11-29T17:36:12.760Z,101074.47
2022-11-29T17:38:39.294Z,101067.03
2022-11-29T17:41:10.512Z,101074.72
2022-11-29T17:43:37.648Z,101075.66
2022-11-29T17:46:11.127Z,101076.91
2022-11-29T17:48:41.083Z,101070.81
2022-11-29T17:51:28.827Z,101069.88
2022-11-29T17:53:55.435Z,101074.22
2022-11-29T17:56:25.416Z,101077.91
2022-11-29T17:58:56.495Z,101072.31
2022-11-29T18:01:25.695Z,101067.59
2022-11-29T18:03:54.684Z,101065.75
2022-11-29T18:06:24.851Z,101064.09
2022-11-29T18:08:54.278Z,101051.19
2022-11-29T18:11:41.676Z,101055.78
2022-11-29T18:14:15.312Z,101061.72
2022-11-29T18:16:42.501Z,101061.72
2022-11-29T18:19:12.353Z,101058.22
2022-11-29T18:21:39.535Z,101060.66
2022-11-29T18:24:07.201Z,101074.72
2022-11-29T18:26:35.684Z,101071.59
2022-11-29T18:29:03.668Z,101082.53
2022-11-29T18:31:32.514Z,101083.12
2022-11-29T18:34:01.104Z,101085.25
2022-11-29T18:36:33.138Z,101074.88
2022-11-29T18:39:02.410Z,101078.25
2022-11-29T18:41:30.251Z,101081.06
2022-11-29T18:44:05.061Z,101085.13
2022-11-29T18:46:32.971Z,101078.78
2022-11-29T18:49:05.096Z,101079.84
2022-11-29T18:51:32.220Z,101070.28
2022-11-29T18:53:59.515Z,101083.25
2022-11-29T18:56:28.878Z,101079.88
2022-11-29T18:59:04.359Z,101072.97
2022-11-29T19:01:34.366Z,101079.88
2022-11-29T19:04:02.017Z,101076.09
2022-11-29T19:06:35.589Z,101075.00
2022-11-29T19:09:11.547Z,101069.75
2022-11-29T19:11:38.579Z,101080.28
2022-11-29T19:14:11.336Z,101070.16
2022-11-29T19:16:39.614Z,101070.94
2022-11-29T19:19:06.656Z,101075.03
2022-11-29T19:23:15.522Z,101074.75
2022-11-29T19:25:42.293Z,101083.00
2022-11-29T19:28:13.878Z,101082.31
2022-11-29T19:30:40.944Z,101074.75
2022-11-29T19:33:10.462Z,101080.72
2022-11-29T19:35:37.025Z,101086.53
2022-11-29T19:38:03.636Z,101077.31
2022-11-29T19:40:30.218Z,101081.25
2022-11-29T19:42:56.811Z,101084.91
2022-11-29T19:45:23.373Z,101084.09
2022-11-29T19:47:50.050Z,101075.84
2022-11-29T19:50:16.708Z,101084.37
2022-11-29T19:52:43.324Z,101085.03
2022-11-29T19:55:09.998Z,101086.94
2022-11-29T19:57:37.124Z,101079.22
2022-11-29T20:00:05.208Z,101077.47
2022-11-29T20:02:31.814Z,101072.97
2022-11-29T20:04:58.472Z,101082.72
2022-11-29T20:07:25.116Z,101085.56
2022-11-29T20:09:51.744Z,101076.66
2022-11-29T20:12:18.362Z,101082.06
2022-11-29T20:14:44.879Z,101069.31
2022-11-29T20:17:11.495Z,101073.09
2022-11-29T20:19:38.131Z,101073.75
2022-11-29T20:22:04.784Z,101066.31
2022-11-29T20:24:36.643Z,101062.91
2022-11-29T20:27:05.712Z,101064.16
2022-11-29T20:29:32.942Z,101078.06
2022-11-29T20:31:59.530Z,101072.00
2022-11-29T20:34:26.807Z,101072.84
2022-11-29T20:37:23.524Z,101066.19
2022-11-29T20:40:16.633Z,101070.81
2022-11-29T20:42:58.059Z,101064.44
2022-11-29T20:45:25.580Z,101057.97
2022-11-29T20:48:12.009Z,101062.03
2022-11-29T20:50:39.227Z,101066.88
2022-11-29T20:53:44.025Z,101071.47
2022-11-29T20:56:11.422Z,101064.34
2022-11-29T20:58:38.994Z,101069.75
2022-11-29T21:01:06.573Z,101063.38
2022-11-29T21:03:36.740Z,101060.41
2022-11-29T21:06:05.278Z,101066.19
2022-11-29T21:08:32.535Z,101064.72
2022-11-29T21:11:05.015Z,101075.81
2022-11-29T21:13:32.118Z,101063.38
2022-11-29T21:15:59.409Z,101070.13
2022-11-29T21:18:27.983Z,101071.06
2022-11-29T21:21:22.835Z,101068.94
2022-11-29T21:24:22.521Z,101062.31
2022-11-29T21:26:52.849Z,101067.44
2022-11-29T21:29:22.614Z,101063.78
2022-11-29T21:31:52.525Z,101074.84
2022-11-29T21:34:19.898Z,101071.47
2022-11-29T21:37:01.677Z,101075.00
2022-11-29T21:39:34.768Z,101076.91
2022-11-29T21:42:02.808Z,101071.66
2022-11-29T21:44:30.543Z,101079.59
2022-11-29T21:46:57.110Z,101074.06
2022-11-29T21:49:23.699Z,101083.53
2022-11-29T21:51:50.306Z,101075.56
2022-11-29T21:54:16.870Z,101087.03
2022-11-29T21:56:43.478Z,101081.34
2022-11-29T21:59:10.045Z,101075.69
2022-11-29T22:01:36.652Z,101072.31
2022-11-29T22:04:04.304Z,101075.94
2022-11-29T22:06:31.176Z,101077.19
2022-11-29T22:08:57.771Z,101079.31
2022-11-29T22:11:31.031Z,101073.78
2022-11-29T22:14:19.014Z,101072.72
2022-11-29T22:17:00.275Z,101074.31
2022-11-29T22:19:33.045Z,101072.00
2022-11-29T22:22:02.406Z,101065.00
2022-11-29T22:24:31.318Z,101071.47
2022-11-29T22:26:58.145Z,101064.72
2022-11-29T22:29:25.124Z,101061.19
2022-11-29T22:31:53.549Z,101060.94
2022-11-29T22:34:21.131Z,101061.78
2022-11-29T22:36:47.966Z,101054.72
2022-11-29T22:39:15.009Z,101060.81
2022-11-29T22:41:41.815Z,101054.47
2022-11-29T22:44:08.795Z,101057.03
2022-11-29T22:46:37.871Z,101051.75
2022-11-29T22:49:04.480Z,101056.50
2022-11-29T22:51:33.854Z,101054.47
2022-11-29T22:54:02.806Z,101044.19
2022-11-29T22:56:31.808Z,101046.22
2022-11-29T22:58:58.791Z,101044.19
2022-11-29T23:01:27.549Z,101039.72
2022-11-29T23:03:56.960Z,101045.38
2022-11-29T23:06:28.999Z,101045.16
2022-11-29T23:08:58.205Z,101042.84
2022-11-29T23:11:29.431Z,101041.06
2022-11-29T23:13:56.024Z,101048.66
2022-11-29T23:16:28.148Z,101042.84
2022-11-29T23:18:56.500Z,101044.44
2022-11-29T23:21:32.141Z,101044.59
2022-11-29T23:24:02.496Z,101045.81
2022-11-29T23:26:33.992Z,101039.59
2022-11-29T23:29:01.935Z,101039.97
2022-11-29T23:31:28.530Z,101037.97
2022-11-29T23:33:55.396Z,101038.78
2022-11-29T23:36:22.041Z,101037.97
2022-11-29T23:38:48.860Z,101031.75
2022-11-29T23:41:15.771Z,101034.97
2022-11-29T23:43:42.485Z,101037.16
2022-11-29T23:46:17.955Z,101038.22
2022-11-29T23:48:44.662Z,101041.38
2022-11-29T23:51:12.061Z,101041.91
2022-11-29T23:53:39.325Z,101046.63
2022-11-29T23:56:08.571Z,101038.22
2022-11-29T23:58:35.306Z,101040.53
